Holly Ridge, Mississippi
Current Conditions -  °F | °C
As of 4:53 PM on Tuesday 25 Nov 2014 (Local Time) from KGLH Reporting Station
Clear Clear  
Wind Chill: 47°   Ceiling: Unl
Heat Index: 49°   Visibility: 10mi
Dew Point: 28°   Wind: 5mph
Humidity: 44%   Direction: 290°WNW
Pressure: 30.19"   Gusts: NA
Location:  33.45°N, 90.75°W
Report Text: KGLH 252253Z AUTO 29004KT 10SM CLR 09/M02 A3019 RMK AO2 SLP231 T00941022
Loading
Personal Weather Stations






























Interactive Weather Map New forecast layout! Learn more

10-Day Weather Forecast

Advertisements
Track Severe Weather on mobile